createdAt,value
2022-12-23T00:00:34.357Z,53.06
2022-12-23T00:03:36.623Z,53.07
2022-12-23T00:06:38.760Z,53.08
2022-12-23T00:09:40.847Z,53.10
2022-12-23T00:13:01.731Z,53.10
2022-12-23T00:16:21.588Z,53.10
2022-12-23T00:19:23.682Z,53.13
2022-12-23T00:22:45.669Z,53.13
2022-12-23T00:25:47.689Z,53.10
2022-12-23T00:28:50.408Z,53.11
2022-12-23T00:31:52.458Z,53.15
2022-12-23T00:34:54.744Z,53.17
2022-12-23T00:37:56.757Z,53.19
2022-12-23T00:41:17.587Z,53.19
2022-12-23T00:44:19.865Z,53.16
2022-12-23T00:47:40.611Z,53.20
2022-12-23T00:50:42.603Z,53.18
2022-12-23T00:53:44.596Z,53.18
2022-12-23T00:56:46.699Z,53.17
2022-12-23T00:59:48.775Z,53.25
2022-12-23T01:03:09.716Z,53.22
2022-12-23T01:06:12.299Z,53.20
2022-12-23T01:09:14.921Z,53.24
2022-12-23T01:12:17.055Z,53.23
2022-12-23T01:15:19.084Z,53.25
2022-12-23T01:18:21.127Z,53.23
2022-12-23T01:21:23.457Z,53.25
2022-12-23T01:24:29.601Z,53.30
2022-12-23T01:27:31.665Z,53.29
2022-12-23T01:30:33.658Z,53.29
2022-12-23T01:33:35.899Z,53.27
2022-12-23T01:36:37.966Z,53.33
2022-12-23T01:39:40.010Z,53.31
2022-12-23T01:42:44.926Z,53.36
2022-12-23T01:45:48.181Z,53.35
2022-12-23T01:48:52.790Z,53.36
2022-12-23T01:51:54.864Z,53.39
2022-12-23T01:54:57.459Z,53.39
2022-12-23T01:58:07.997Z,53.44
2022-12-23T02:01:30.092Z,53.43
2022-12-23T02:04:32.243Z,53.42
2022-12-23T02:07:54.041Z,53.40
2022-12-23T02:11:17.474Z,53.39
2022-12-23T02:14:47.334Z,53.45
2022-12-23T02:18:40.628Z,53.47
2022-12-23T02:22:05.849Z,53.46
2022-12-23T02:25:22.286Z,53.51
2022-12-23T02:28:46.158Z,53.51
2022-12-23T02:32:13.103Z,53.52
2022-12-23T02:35:33.401Z,53.52
2022-12-23T02:38:48.121Z,53.56
2022-12-23T02:42:20.411Z,53.59
2022-12-23T02:45:44.519Z,53.59
2022-12-23T02:48:55.048Z,53.54
2022-12-23T02:52:01.845Z,53.59
2022-12-23T02:55:09.733Z,53.58
2022-12-23T02:58:15.077Z,53.57
2022-12-23T03:01:19.105Z,53.65
2022-12-23T03:04:21.516Z,53.63
2022-12-23T03:07:42.144Z,53.63
2022-12-23T03:11:14.069Z,53.60
2022-12-23T03:14:21.653Z,53.65
2022-12-23T03:17:29.921Z,53.64
2022-12-23T03:20:39.778Z,53.65
2022-12-23T03:23:55.552Z,53.66
2022-12-23T03:27:30.952Z,53.63
2022-12-23T03:30:34.215Z,53.67
2022-12-23T03:33:40.836Z,53.67
2022-12-23T03:36:47.137Z,53.62
2022-12-23T03:39:54.791Z,53.65
2022-12-23T03:43:04.007Z,53.67
2022-12-23T03:46:13.172Z,53.67
2022-12-23T03:49:24.097Z,53.62
2022-12-23T03:52:32.747Z,53.68
2022-12-23T03:55:43.667Z,53.68
2022-12-23T03:58:50.879Z,53.68
2022-12-23T04:02:08.745Z,53.71
2022-12-23T04:05:26.269Z,53.68
2022-12-23T04:08:35.734Z,53.70
2022-12-23T04:11:38.118Z,53.70
2022-12-23T04:14:47.329Z,53.67
2022-12-23T04:17:50.877Z,53.70
2022-12-23T04:20:52.936Z,53.71
2022-12-23T04:23:54.917Z,53.73
2022-12-23T04:26:56.890Z,53.72
2022-12-23T04:29:58.862Z,53.72
2022-12-23T04:33:01.183Z,53.70
2022-12-23T04:36:03.319Z,53.72
2022-12-23T04:39:05.333Z,53.65
2022-12-23T04:42:07.361Z,53.62
2022-12-23T04:45:09.818Z,53.47
2022-12-23T04:48:11.845Z,53.44
2022-12-23T04:51:13.881Z,53.49
2022-12-23T04:54:15.913Z,53.51
2022-12-23T04:57:18.289Z,53.49
2022-12-23T05:00:20.793Z,53.42
2022-12-23T05:03:22.798Z,53.39
2022-12-23T05:06:24.855Z,53.29
2022-12-23T05:09:26.850Z,53.22
2022-12-23T05:12:29.971Z,53.12
2022-12-23T05:15:33.493Z,53.15
2022-12-23T05:18:38.308Z,53.15
2022-12-23T05:21:40.382Z,53.18
2022-12-23T05:24:43.612Z,53.15
2022-12-23T05:27:45.614Z,53.06
2022-12-23T05:30:47.843Z,52.96
2022-12-23T05:33:50.014Z,52.93
2022-12-23T05:36:55.251Z,52.91
2022-12-23T05:39:57.292Z,52.91
2022-12-23T05:43:02.268Z,52.93
2022-12-23T05:46:04.563Z,52.94
2022-12-23T05:49:06.654Z,52.98
2022-12-23T05:52:08.661Z,52.98
2022-12-23T05:55:10.863Z,52.90
2022-12-23T05:58:12.908Z,52.78
2022-12-23T06:01:17.409Z,52.72
2022-12-23T06:04:20.223Z,52.70
2022-12-23T06:07:22.226Z,52.69
2022-12-23T06:10:24.431Z,52.65
2022-12-23T06:13:29.448Z,52.69
2022-12-23T06:16:31.521Z,52.66
2022-12-23T06:19:33.515Z,52.74
2022-12-23T06:22:38.484Z,52.75
2022-12-23T06:25:40.496Z,52.63
2022-12-23T06:28:42.587Z,52.50
2022-12-23T06:31:44.663Z,52.44
2022-12-23T06:34:46.726Z,52.42
2022-12-23T06:37:48.791Z,52.45
2022-12-23T06:40:50.911Z,52.47
2022-12-23T06:43:54.775Z,52.46
2022-12-23T06:46:56.807Z,52.47
2022-12-23T06:49:58.814Z,52.52
2022-12-23T06:53:00.884Z,52.56
2022-12-23T06:56:06.953Z,52.50
2022-12-23T06:59:08.957Z,52.36
2022-12-23T07:02:12.131Z,52.35
2022-12-23T07:05:14.355Z,52.39
2022-12-23T07:08:20.879Z,52.43
2022-12-23T07:11:22.930Z,52.44
2022-12-23T07:14:24.905Z,52.45
2022-12-23T07:17:29.484Z,52.40
2022-12-23T07:20:34.536Z,52.22
2022-12-23T07:23:36.540Z,52.23
2022-12-23T07:26:38.698Z,52.20
2022-12-23T07:29:40.719Z,52.12
2022-12-23T07:32:48.790Z,52.16
2022-12-23T07:35:50.876Z,52.26
2022-12-23T07:38:52.951Z,52.64
2022-12-23T07:42:16.641Z,52.78
2022-12-23T07:45:17.444Z,53.03
2022-12-23T07:48:19.560Z,52.57
2022-12-23T07:51:21.631Z,52.51
2022-12-23T07:54:23.629Z,52.59
2022-12-23T07:57:25.660Z,52.61
2022-12-23T08:00:51.190Z,52.68
2022-12-23T08:03:53.179Z,53.01
2022-12-23T08:06:55.325Z,53.17
2022-12-23T08:09:57.304Z,53.20
2022-12-23T08:13:02.146Z,53.22
2022-12-23T08:16:06.025Z,53.05
2022-12-23T08:19:08.191Z,52.88
2022-12-23T08:22:10.248Z,52.84
2022-12-23T08:25:12.257Z,52.80
2022-12-23T08:28:14.336Z,52.89
2022-12-23T08:31:17.927Z,52.80
2022-12-23T08:34:20.113Z,52.91
2022-12-23T08:37:22.138Z,53.04
2022-12-23T08:40:24.188Z,53.20
2022-12-23T08:43:31.765Z,53.43
2022-12-23T08:46:37.798Z,53.84
2022-12-23T08:49:39.932Z,54.07
2022-12-23T08:52:41.939Z,54.20
2022-12-23T08:55:47.648Z,54.34
2022-12-23T08:58:52.614Z,54.42
2022-12-23T09:01:54.833Z,54.54
2022-12-23T09:04:56.954Z,54.60
2022-12-23T09:07:59.600Z,54.74
2022-12-23T09:11:02.004Z,54.91
2022-12-23T09:14:04.978Z,54.93
2022-12-23T09:17:07.054Z,54.94
2022-12-23T09:20:10.336Z,55.21
2022-12-23T09:23:12.329Z,55.08
2022-12-23T09:26:26.090Z,55.00
2022-12-23T09:29:28.130Z,54.90
2022-12-23T09:32:30.190Z,54.90
2022-12-23T09:35:33.293Z,54.90
2022-12-23T09:38:36.030Z,55.00
2022-12-23T09:41:53.849Z,55.10
2022-12-23T09:45:01.284Z,55.08
2022-12-23T09:48:04.409Z,55.00
2022-12-23T09:51:06.940Z,55.02
2022-12-23T09:54:17.424Z,55.07
2022-12-23T09:57:36.271Z,55.04
2022-12-23T10:00:48.401Z,55.02
2022-12-23T10:04:15.056Z,55.02
2022-12-23T10:07:19.317Z,55.15
2022-12-23T10:10:42.310Z,55.25
2022-12-23T10:13:56.512Z,55.39
2022-12-23T10:17:10.704Z,55.65
2022-12-23T10:20:20.407Z,55.84
2022-12-23T10:23:37.158Z,55.71
2022-12-23T10:27:11.204Z,55.76
2022-12-23T10:30:51.282Z,55.84
2022-12-23T10:34:02.473Z,55.83
2022-12-23T10:37:23.632Z,55.81
2022-12-23T10:40:50.257Z,55.78
2022-12-23T10:44:19.866Z,55.76
2022-12-23T10:47:30.740Z,55.70
2022-12-23T10:50:53.517Z,55.70
2022-12-23T10:54:11.364Z,55.74
2022-12-23T10:57:17.259Z,55.78
2022-12-23T11:00:23.956Z,55.78
2022-12-23T11:03:35.961Z,55.75
2022-12-23T11:06:45.833Z,55.71
2022-12-23T11:10:06.131Z,55.74
2022-12-23T11:13:08.528Z,55.87
2022-12-23T11:16:18.917Z,55.99
2022-12-23T11:19:20.969Z,56.13
2022-12-23T11:22:25.654Z,56.26
2022-12-23T11:25:40.320Z,56.21
2022-12-23T11:28:52.113Z,56.31
2022-12-23T11:31:54.910Z,56.56
2022-12-23T11:34:57.129Z,56.98
2022-12-23T11:38:00.805Z,57.47
2022-12-23T11:41:04.404Z,58.08
2022-12-23T11:44:11.158Z,58.37
2022-12-23T11:47:21.832Z,58.25
2022-12-23T11:50:36.405Z,58.31
2022-12-23T11:53:42.982Z,58.33
2022-12-23T11:56:48.234Z,58.31
2022-12-23T11:59:55.636Z,58.30
2022-12-23T12:03:01.090Z,58.25
2022-12-23T12:06:05.014Z,58.38
2022-12-23T12:09:07.174Z,58.48
2022-12-23T12:12:16.716Z,58.45
2022-12-23T12:15:36.971Z,58.41
2022-12-23T12:18:41.858Z,58.45
2022-12-23T12:21:46.041Z,58.51
2022-12-23T12:24:56.667Z,58.56
2022-12-23T12:28:03.026Z,58.57
2022-12-23T12:31:26.087Z,58.64
2022-12-23T12:34:37.645Z,58.72
2022-12-23T12:37:49.846Z,58.80
2022-12-23T12:41:07.942Z,58.87
2022-12-23T12:44:40.221Z,58.80
2022-12-23T12:48:02.116Z,59.99
2022-12-23T12:51:19.140Z,60.28
2022-12-23T12:54:32.637Z,59.95
2022-12-23T12:57:36.398Z,59.64
2022-12-23T13:01:00.352Z,59.74
2022-12-23T13:04:20.335Z,59.80
2022-12-23T13:07:42.292Z,59.93
2022-12-23T13:10:55.452Z,60.26
2022-12-23T13:14:26.764Z,60.11
2022-12-23T13:17:34.360Z,60.29
2022-12-23T13:20:54.257Z,60.44
2022-12-23T13:24:11.189Z,60.60
2022-12-23T13:27:34.454Z,60.73
2022-12-23T13:30:43.862Z,60.99
2022-12-23T13:34:02.777Z,61.38
2022-12-23T13:37:29.025Z,61.77
2022-12-23T13:40:51.000Z,62.62
2022-12-23T13:43:55.774Z,62.79
2022-12-23T13:47:25.697Z,62.61
2022-12-23T13:50:34.599Z,62.41
2022-12-23T13:53:59.311Z,62.47
2022-12-23T13:57:24.674Z,62.44
2022-12-23T14:00:32.688Z,62.17
2022-12-23T14:03:38.865Z,62.02
2022-12-23T14:06:42.993Z,62.03
2022-12-23T14:09:51.134Z,61.81
2022-12-23T14:13:01.010Z,61.62
2022-12-23T14:16:12.038Z,61.50
2022-12-23T14:19:42.515Z,61.35
2022-12-23T14:23:18.909Z,61.17
2022-12-23T14:26:46.851Z,61.02
2022-12-23T14:30:14.179Z,60.93
2022-12-23T14:33:25.993Z,61.06
2022-12-23T14:36:28.565Z,61.35
2022-12-23T14:39:32.937Z,61.57
2022-12-23T14:42:40.762Z,61.19
2022-12-23T14:45:44.230Z,61.37
2022-12-23T14:48:46.201Z,61.38
2022-12-23T14:51:51.369Z,61.28
2022-12-23T14:55:21.054Z,61.11
2022-12-23T14:58:27.718Z,61.38
2022-12-23T15:01:53.822Z,61.28
2022-12-23T15:04:59.578Z,61.34
2022-12-23T15:08:01.808Z,61.38
2022-12-23T15:11:05.494Z,61.34
2022-12-23T15:14:14.600Z,61.61
2022-12-23T15:17:36.961Z,61.61
2022-12-23T15:20:39.657Z,61.63
2022-12-23T15:23:49.671Z,61.56
2022-12-23T15:27:17.864Z,61.51
2022-12-23T15:30:16.069Z,61.73
2022-12-23T15:34:00.581Z,62.01
2022-12-23T15:36:45.543Z,61.94
2022-12-23T15:39:52.397Z,61.87
2022-12-23T15:43:01.861Z,61.74
2022-12-23T15:46:33.559Z,61.66
2022-12-23T15:49:35.617Z,61.54
2022-12-23T15:52:41.191Z,61.43
2022-12-23T15:55:43.791Z,61.10
2022-12-23T15:58:46.227Z,59.18
2022-12-23T16:01:48.308Z,59.20
2022-12-23T16:04:56.345Z,59.30
2022-12-23T16:08:29.017Z,59.17
2022-12-23T16:12:00.659Z,59.33
2022-12-23T16:15:03.187Z,59.34
2022-12-23T16:18:25.725Z,59.39
2022-12-23T16:21:34.951Z,59.12
2022-12-23T16:24:37.445Z,60.54
2022-12-23T16:27:58.449Z,59.65
2022-12-23T16:31:00.641Z,58.64
2022-12-23T16:34:06.626Z,58.17
2022-12-23T16:37:08.834Z,58.06
2022-12-23T16:40:14.323Z,57.99
2022-12-23T16:43:17.535Z,57.91
2022-12-23T16:46:21.741Z,57.84
2022-12-23T16:49:31.206Z,57.76
2022-12-23T16:52:35.478Z,57.71
2022-12-23T16:55:37.525Z,57.67
2022-12-23T16:58:39.737Z,57.64
2022-12-23T17:01:49.099Z,57.61
2022-12-23T17:04:51.285Z,57.61
2022-12-23T17:07:53.426Z,57.60
2022-12-23T17:10:56.812Z,57.56
2022-12-23T17:14:04.675Z,57.57
2022-12-23T17:17:15.809Z,57.54
2022-12-23T17:20:19.780Z,57.50
2022-12-23T17:23:32.353Z,57.46
2022-12-23T17:26:34.419Z,57.51
2022-12-23T17:29:36.472Z,57.37
2022-12-23T17:32:38.694Z,57.42
2022-12-23T17:35:40.763Z,57.42
2022-12-23T17:38:42.889Z,57.44
2022-12-23T17:41:45.030Z,57.39
2022-12-23T17:44:47.545Z,57.34
2022-12-23T17:47:49.617Z,57.35
2022-12-23T17:50:51.668Z,57.31
2022-12-23T17:53:57.605Z,57.36
2022-12-23T17:57:00.399Z,57.16
2022-12-23T18:00:02.786Z,57.14
2022-12-23T18:03:06.248Z,57.17
2022-12-23T18:06:13.768Z,57.11
2022-12-23T18:09:16.627Z,57.09
2022-12-23T18:12:25.313Z,57.10
2022-12-23T18:15:37.838Z,57.03
2022-12-23T18:18:46.334Z,57.00
2022-12-23T18:21:50.074Z,56.96
2022-12-23T18:24:58.834Z,56.93
2022-12-23T18:28:01.487Z,56.88
2022-12-23T18:31:03.663Z,56.85
2022-12-23T18:34:05.752Z,56.87
2022-12-23T18:37:09.348Z,56.84
2022-12-23T18:40:11.686Z,56.79
2022-12-23T18:43:22.690Z,56.74
2022-12-23T18:46:24.848Z,56.70
2022-12-23T18:49:26.860Z,56.64
2022-12-23T18:52:28.919Z,56.52
2022-12-23T18:55:31.483Z,56.53
2022-12-23T18:58:33.504Z,56.59
2022-12-23T19:01:35.536Z,56.58
2022-12-23T19:04:37.577Z,56.66
2022-12-23T19:07:39.554Z,56.77
2022-12-23T19:10:41.935Z,56.87
2022-12-23T19:13:44.707Z,56.92
2022-12-23T19:16:51.657Z,56.94
2022-12-23T19:19:54.494Z,56.90
2022-12-23T19:22:56.501Z,56.90
2022-12-23T19:25:58.686Z,56.86
2022-12-23T19:29:00.809Z,56.84
2022-12-23T19:32:02.850Z,56.85
2022-12-23T19:35:05.170Z,56.81
2022-12-23T19:38:07.271Z,56.81
2022-12-23T19:41:09.527Z,56.75
2022-12-23T19:44:11.541Z,56.72
2022-12-23T19:47:14.072Z,56.71
2022-12-23T19:50:16.323Z,56.68
2022-12-23T19:53:18.320Z,56.66
2022-12-23T19:56:21.176Z,56.59
2022-12-23T19:59:23.542Z,56.52
2022-12-23T20:02:25.584Z,56.47
2022-12-23T20:05:28.243Z,56.42
2022-12-23T20:08:30.231Z,56.51
2022-12-23T20:11:41.418Z,56.60
2022-12-23T20:14:43.424Z,56.59
2022-12-23T20:17:45.418Z,56.64
2022-12-23T20:20:47.408Z,56.65
2022-12-23T20:23:50.167Z,56.64
2022-12-23T20:26:52.194Z,56.65
2022-12-23T20:29:54.191Z,56.63
2022-12-23T20:32:57.292Z,56.54
2022-12-23T20:35:59.354Z,56.53
2022-12-23T20:39:03.234Z,56.39
2022-12-23T20:42:05.256Z,56.41
2022-12-23T20:45:07.620Z,56.48
2022-12-23T20:48:10.355Z,56.51
2022-12-23T20:51:15.105Z,56.61
2022-12-23T20:54:17.290Z,56.60
2022-12-23T20:57:25.789Z,56.60
2022-12-23T21:00:27.894Z,56.58
2022-12-23T21:03:29.912Z,56.64
2022-12-23T21:06:33.465Z,56.71
2022-12-23T21:09:35.813Z,56.72
2022-12-23T21:12:37.918Z,56.76
2022-12-23T21:15:40.025Z,56.78
2022-12-23T21:18:44.044Z,56.74
2022-12-23T21:21:46.958Z,56.72
2022-12-23T21:24:49.073Z,56.68
2022-12-23T21:27:51.559Z,56.64
2022-12-23T21:30:53.574Z,56.63
2022-12-23T21:33:56.235Z,56.60
2022-12-23T21:36:58.388Z,56.55
2022-12-23T21:40:00.612Z,56.60
2022-12-23T21:43:08.330Z,56.66
2022-12-23T21:46:13.454Z,56.71
2022-12-23T21:49:15.522Z,56.80
2022-12-23T21:52:17.578Z,56.84
2022-12-23T21:55:19.607Z,56.87
2022-12-23T21:58:21.595Z,56.90
2022-12-23T22:01:24.149Z,56.93
2022-12-23T22:04:26.235Z,56.93
2022-12-23T22:07:28.256Z,57.00
2022-12-23T22:10:30.260Z,56.94
2022-12-23T22:13:32.317Z,57.00
2022-12-23T22:16:35.801Z,56.95
2022-12-23T22:19:37.897Z,56.98
2022-12-23T22:22:40.030Z,56.97
2022-12-23T22:25:42.081Z,56.90
2022-12-23T22:28:44.365Z,56.89
2022-12-23T22:31:50.543Z,56.91
2022-12-23T22:34:52.696Z,56.89
2022-12-23T22:37:54.757Z,56.85
2022-12-23T22:40:56.744Z,56.84
2022-12-23T22:43:59.611Z,56.82
2022-12-23T22:47:01.809Z,56.80
2022-12-23T22:50:04.141Z,56.74
2022-12-23T22:53:06.238Z,56.77
2022-12-23T22:56:10.194Z,56.74
2022-12-23T22:59:21.027Z,56.71
2022-12-23T23:02:24.812Z,56.71
2022-12-23T23:05:26.984Z,56.74
2022-12-23T23:08:30.101Z,56.72
2022-12-23T23:11:32.132Z,56.68
2022-12-23T23:14:52.296Z,56.68
2022-12-23T23:17:56.181Z,56.64
2022-12-23T23:20:58.358Z,56.68
2022-12-23T23:24:00.435Z,56.64
2022-12-23T23:27:02.475Z,56.64
2022-12-23T23:30:04.834Z,56.64
2022-12-23T23:33:08.110Z,56.59
2022-12-23T23:36:10.567Z,56.61
2022-12-23T23:39:13.136Z,56.62
2022-12-23T23:42:16.828Z,56.59
2022-12-23T23:45:18.952Z,56.61
2022-12-23T23:48:21.729Z,56.58
2022-12-23T23:51:24.252Z,56.57
2022-12-23T23:54:26.439Z,56.55
2022-12-23T23:57:28.704Z,56.52
